createdAt,value
2022-12-19T00:00:50.895Z,42.95
2022-12-19T00:03:20.098Z,47.75
2022-12-19T00:05:49.298Z,57.47
2022-12-19T00:08:18.838Z,57.05
2022-12-19T00:10:59.174Z,50.40
2022-12-19T00:13:34.763Z,60.10
2022-12-19T00:16:18.835Z,58.13
2022-12-19T00:18:52.340Z,46.97
2022-12-19T00:21:28.042Z,61.95
2022-12-19T00:23:57.721Z,53.25
2022-12-19T00:26:33.968Z,44.47
2022-12-19T00:29:14.126Z,59.47
2022-12-19T00:31:43.829Z,49.65
2022-12-19T00:34:13.088Z,57.40
2022-12-19T00:36:42.353Z,63.80
2022-12-19T00:39:12.624Z,75.63
2022-12-19T00:41:43.057Z,58.78
2022-12-19T00:44:16.534Z,50.92
2022-12-19T00:46:50.262Z,57.13
2022-12-19T00:49:22.967Z,51.13
2022-12-19T00:51:52.549Z,43.85
2022-12-19T00:54:21.953Z,59.72
2022-12-19T00:56:51.338Z,55.30
2022-12-19T00:59:26.513Z,40.42
2022-12-19T01:01:56.606Z,46.83
2022-12-19T01:04:28.565Z,41.70
2022-12-19T01:07:01.793Z,37.78
2022-12-19T01:09:33.529Z,46.72
2022-12-19T01:12:24.763Z,36.45
2022-12-19T01:15:04.922Z,38.67
2022-12-19T01:17:44.418Z,39.03
2022-12-19T01:20:29.184Z,31.67
2022-12-19T01:23:00.712Z,38.60
2022-12-19T01:25:30.212Z,39.00
2022-12-19T01:27:59.864Z,31.25
2022-12-19T01:30:30.744Z,38.83
2022-12-19T01:33:02.341Z,42.35
2022-12-19T01:35:31.546Z,40.85
2022-12-19T01:38:08.114Z,58.55
2022-12-19T01:40:38.628Z,36.03
2022-12-19T01:43:15.876Z,33.42
2022-12-19T01:45:46.032Z,34.40
2022-12-19T01:48:31.868Z,36.88
2022-12-19T01:51:17.622Z,35.30
2022-12-19T01:53:52.472Z,28.23
2022-12-19T01:56:29.323Z,43.88
2022-12-19T01:59:06.409Z,43.47
2022-12-19T02:01:50.919Z,44.42
2022-12-19T02:04:22.463Z,27.30
2022-12-19T02:06:54.184Z,44.78
2022-12-19T02:09:23.911Z,35.05
2022-12-19T02:11:54.065Z,37.60
2022-12-19T02:14:23.933Z,37.38
2022-12-19T02:17:20.204Z,28.55
2022-12-19T02:20:22.299Z,27.77
2022-12-19T02:23:03.339Z,40.42
2022-12-19T02:26:22.812Z,39.35
2022-12-19T02:29:39.637Z,45.28
2022-12-19T02:32:23.904Z,54.65
2022-12-19T02:35:01.361Z,35.85
2022-12-19T02:37:43.741Z,37.33
2022-12-19T02:40:55.747Z,32.35
2022-12-19T02:43:33.109Z,38.70
2022-12-19T02:46:05.881Z,38.55
2022-12-19T02:48:36.182Z,76.65
2022-12-19T02:51:06.206Z,53.22
2022-12-19T02:53:37.744Z,39.35
2022-12-19T02:57:04.894Z,39.38
2022-12-19T02:59:45.827Z,43.85
2022-12-19T03:02:37.305Z,47.30
2022-12-19T03:05:18.522Z,46.72
2022-12-19T03:08:21.119Z,40.97
2022-12-19T03:11:15.760Z,38.45
2022-12-19T03:14:01.188Z,48.15
2022-12-19T03:16:30.969Z,27.30
2022-12-19T03:19:03.893Z,47.60
2022-12-19T03:21:51.614Z,39.75
2022-12-19T03:24:21.746Z,38.60
2022-12-19T03:27:09.164Z,39.03
2022-12-19T03:29:57.468Z,57.85
2022-12-19T03:32:28.481Z,44.45
2022-12-19T03:35:19.487Z,28.98
2022-12-19T03:37:53.660Z,28.20
2022-12-19T03:40:27.372Z,33.67
2022-12-19T03:43:11.282Z,44.25
2022-12-19T03:48:48.546Z,30.13
2022-12-19T03:51:39.271Z,42.13
2022-12-19T03:54:32.565Z,34.38
2022-12-19T03:57:22.456Z,24.73
2022-12-19T03:59:58.220Z,27.33
2022-12-19T04:02:28.834Z,27.10
2022-12-19T04:05:10.650Z,34.35
2022-12-19T04:07:42.844Z,30.92
2022-12-19T04:10:18.105Z,29.15
2022-12-19T04:13:07.426Z,22.67
2022-12-19T04:16:30.123Z,30.35
2022-12-19T04:19:12.628Z,28.73
2022-12-19T04:21:57.440Z,21.10
2022-12-19T04:24:37.587Z,31.13
2022-12-19T04:27:09.689Z,27.52
2022-12-19T04:29:40.778Z,21.13
2022-12-19T04:32:12.595Z,23.30
2022-12-19T04:34:43.178Z,21.95
2022-12-19T04:37:13.526Z,22.35
2022-12-19T04:39:42.752Z,31.88
2022-12-19T04:42:11.954Z,22.50
2022-12-19T04:44:41.275Z,26.58
2022-12-19T04:47:10.513Z,20.38
2022-12-19T04:49:39.727Z,23.70
2022-12-19T04:52:08.950Z,23.70
2022-12-19T04:54:38.248Z,28.30
2022-12-19T04:57:07.778Z,22.92
2022-12-19T04:59:37.155Z,22.30
2022-12-19T05:02:09.376Z,26.63
2022-12-19T05:04:38.763Z,16.95
2022-12-19T05:07:08.001Z,21.35
2022-12-19T05:09:40.238Z,24.08
2022-12-19T05:12:12.226Z,18.50
2022-12-19T05:14:50.200Z,18.42
2022-12-19T05:17:22.261Z,28.75
2022-12-19T05:19:51.588Z,16.63
2022-12-19T05:22:33.296Z,20.15
2022-12-19T05:25:02.784Z,13.40
2022-12-19T05:27:33.236Z,18.95
2022-12-19T05:30:03.170Z,20.35
2022-12-19T05:32:34.692Z,15.02
2022-12-19T05:35:03.952Z,16.23
2022-12-19T05:37:33.360Z,17.90
2022-12-19T05:40:02.514Z,17.85
2022-12-19T05:42:31.724Z,22.08
2022-12-19T05:45:00.915Z,14.40
2022-12-19T05:47:30.768Z,19.73
2022-12-19T05:50:00.482Z,14.55
2022-12-19T05:52:29.885Z,22.73
2022-12-19T05:55:00.389Z,19.45
2022-12-19T05:57:29.526Z,14.32
2022-12-19T05:59:58.622Z,15.25
2022-12-19T06:02:27.960Z,15.57
2022-12-19T06:04:57.126Z,16.20
2022-12-19T06:07:26.387Z,27.77
2022-12-19T06:09:55.467Z,15.13
2022-12-19T06:12:24.946Z,17.38
2022-12-19T06:14:54.157Z,15.95
2022-12-19T06:17:23.306Z,15.13
2022-12-19T06:19:52.458Z,18.42
2022-12-19T06:22:21.554Z,16.48
2022-12-19T06:24:50.772Z,27.02
2022-12-19T06:27:19.875Z,21.52
2022-12-19T06:29:49.621Z,15.95
2022-12-19T06:32:18.779Z,22.63
2022-12-19T06:35:03.576Z,21.33
2022-12-19T06:37:33.000Z,28.33
2022-12-19T06:40:02.091Z,22.55
2022-12-19T06:42:31.276Z,18.02
2022-12-19T06:45:00.419Z,15.38
2022-12-19T06:47:30.121Z,18.63
2022-12-19T06:49:59.311Z,23.08
2022-12-19T06:52:28.594Z,11.57
2022-12-19T06:54:59.460Z,15.50
2022-12-19T06:57:29.078Z,19.88
2022-12-19T07:00:04.222Z,21.40
2022-12-19T07:02:34.490Z,17.50
2022-12-19T07:05:08.769Z,16.02
2022-12-19T07:07:38.660Z,12.80
2022-12-19T07:10:13.098Z,19.98
2022-12-19T07:12:43.358Z,20.80
2022-12-19T07:15:13.337Z,14.40
2022-12-19T07:17:43.354Z,15.25
2022-12-19T07:20:15.131Z,12.60
2022-12-19T07:22:49.735Z,19.67
2022-12-19T07:25:20.699Z,18.20
2022-12-19T07:27:50.627Z,16.33
2022-12-19T07:30:20.253Z,13.10
2022-12-19T07:32:53.201Z,16.52
2022-12-19T07:35:23.933Z,13.60
2022-12-19T07:37:53.568Z,21.13
2022-12-19T07:40:23.749Z,15.48
2022-12-19T07:42:58.124Z,15.20
2022-12-19T07:45:28.345Z,23.15
2022-12-19T07:48:02.781Z,18.60
2022-12-19T07:50:33.548Z,19.98
2022-12-19T07:53:02.852Z,19.15
2022-12-19T07:55:32.059Z,17.95
2022-12-19T07:58:01.512Z,22.05
2022-12-19T08:00:36.437Z,18.40
2022-12-19T08:03:08.781Z,13.48
2022-12-19T08:05:38.858Z,16.27
2022-12-19T08:08:12.558Z,19.63
2022-12-19T08:10:55.933Z,14.63
2022-12-19T08:13:35.156Z,14.40
2022-12-19T08:16:10.113Z,20.42
2022-12-19T08:18:43.324Z,20.20
2022-12-19T08:21:14.619Z,27.85
2022-12-19T08:23:48.859Z,18.15
2022-12-19T08:26:26.168Z,16.40
2022-12-19T08:28:58.446Z,16.25
2022-12-19T08:31:30.744Z,13.15
2022-12-19T08:34:00.760Z,16.77
2022-12-19T08:36:33.275Z,15.18
2022-12-19T08:39:05.670Z,19.23
2022-12-19T08:41:35.958Z,16.92
2022-12-19T08:44:13.467Z,23.27
2022-12-19T08:46:48.022Z,15.47
2022-12-19T08:52:05.885Z,25.88
2022-12-19T08:54:37.121Z,20.88
2022-12-19T08:57:06.545Z,15.15
2022-12-19T08:59:51.113Z,14.43
2022-12-19T09:02:21.562Z,19.55
2022-12-19T09:05:57.211Z,17.73
2022-12-19T09:07:41.901Z,18.67
2022-12-19T09:10:14.207Z,15.27
2022-12-19T09:12:46.673Z,15.43
2022-12-19T09:15:20.374Z,26.25
2022-12-19T09:17:56.152Z,17.38
2022-12-19T09:20:26.436Z,23.88
2022-12-19T09:22:57.112Z,16.20
2022-12-19T09:25:27.735Z,18.50
2022-12-19T09:28:26.959Z,17.38
2022-12-19T09:31:02.611Z,19.08
2022-12-19T09:33:43.608Z,21.25
2022-12-19T09:36:36.704Z,22.27
2022-12-19T09:39:06.521Z,17.70
2022-12-19T09:41:58.003Z,20.15
2022-12-19T09:44:51.904Z,22.40
2022-12-19T09:47:33.679Z,26.60
2022-12-19T09:50:04.837Z,27.33
2022-12-19T09:52:52.374Z,31.60
2022-12-19T09:55:34.043Z,20.80
2022-12-19T09:58:33.864Z,21.08
2022-12-19T10:01:12.548Z,20.48
2022-12-19T10:03:55.787Z,22.10
2022-12-19T10:07:12.992Z,22.98
2022-12-19T10:11:00.956Z,17.73
2022-12-19T10:13:12.837Z,17.80
2022-12-19T10:16:23.145Z,29.13
2022-12-19T10:19:03.078Z,27.67
2022-12-19T10:25:35.627Z,25.17
2022-12-19T10:28:40.779Z,21.70
2022-12-19T10:31:35.663Z,30.85
2022-12-19T10:34:29.775Z,27.70
2022-12-19T10:37:26.783Z,26.38
2022-12-19T10:40:29.520Z,24.05
2022-12-19T10:43:19.093Z,25.02
2022-12-19T10:46:04.019Z,28.25
2022-12-19T10:48:33.550Z,21.80
2022-12-19T10:51:06.246Z,28.77
2022-12-19T10:53:36.528Z,27.95
2022-12-19T10:56:31.698Z,26.52
2022-12-19T10:59:05.228Z,29.98
2022-12-19T11:01:40.687Z,41.72
2022-12-19T11:04:33.143Z,37.92
2022-12-19T11:07:05.628Z,26.60
2022-12-19T11:09:50.647Z,30.25
2022-12-19T11:16:35.575Z,37.53
2022-12-19T11:19:31.293Z,38.88
2022-12-19T11:28:08.244Z,50.97
2022-12-19T11:29:33.020Z,52.67
2022-12-19T11:30:47.112Z,52.25
2022-12-19T11:31:51.002Z,66.85
2022-12-19T11:33:20.337Z,57.25
2022-12-19T11:36:02.732Z,80.88
2022-12-19T11:38:53.786Z,73.90
2022-12-19T11:41:36.716Z,63.92
2022-12-19T11:44:33.553Z,58.03
2022-12-19T11:47:34.410Z,76.20
2022-12-19T11:50:27.924Z,48.25
2022-12-19T11:53:24.641Z,56.55
2022-12-19T11:56:05.027Z,58.30
2022-12-19T11:58:51.854Z,49.08
2022-12-19T12:01:48.457Z,49.95
2022-12-19T12:04:57.628Z,52.15
2022-12-19T12:07:56.996Z,44.65
2022-12-19T12:16:09.472Z,43.65
2022-12-19T12:23:23.465Z,47.65
2022-12-19T12:31:23.616Z,41.30
2022-12-19T12:31:27.605Z,39.67
2022-12-19T12:31:43.269Z,39.97
2022-12-19T12:31:52.739Z,55.60
2022-12-19T12:38:30.176Z,44.70
2022-12-19T12:41:55.404Z,35.75
2022-12-19T12:44:32.846Z,54.30
2022-12-19T12:47:27.343Z,40.85
2022-12-19T12:50:09.007Z,28.70
2022-12-19T12:52:51.109Z,30.05
2022-12-19T12:55:44.366Z,34.40
2022-12-19T12:58:54.386Z,38.85
2022-12-19T13:01:41.332Z,37.53
2022-12-19T13:04:13.549Z,35.85
2022-12-19T13:06:54.781Z,44.00
2022-12-19T13:09:31.456Z,28.67
2022-12-19T13:12:46.489Z,39.65
2022-12-19T13:15:30.681Z,29.05
2022-12-19T13:18:12.493Z,34.85
2022-12-19T13:20:47.727Z,37.47
2022-12-19T13:23:48.053Z,37.30
2022-12-19T13:26:48.890Z,44.53
2022-12-19T13:29:32.121Z,41.65
2022-12-19T13:32:16.586Z,38.55
2022-12-19T13:35:49.632Z,34.95
2022-12-19T13:39:59.623Z,29.45
2022-12-19T13:41:50.101Z,31.80
2022-12-19T13:44:24.207Z,30.85
2022-12-19T13:46:56.548Z,48.08
2022-12-19T13:49:35.659Z,37.30
2022-12-19T13:52:06.515Z,34.80
2022-12-19T13:54:57.021Z,37.03
2022-12-19T14:00:42.133Z,34.20
2022-12-19T14:03:21.761Z,33.00
2022-12-19T14:06:16.376Z,40.88
2022-12-19T14:08:41.661Z,43.00
2022-12-19T14:11:40.936Z,42.45
2022-12-19T14:14:27.536Z,40.50
2022-12-19T14:17:10.066Z,43.88
2022-12-19T14:19:53.233Z,49.60
2022-12-19T14:22:41.383Z,92.00
2022-12-19T14:26:56.938Z,51.58
2022-12-19T14:28:23.737Z,43.53
2022-12-19T14:31:09.487Z,81.80
2022-12-19T14:34:10.964Z,64.90
2022-12-19T14:36:55.588Z,69.63
2022-12-19T14:43:56.249Z,67.82
2022-12-19T14:52:50.774Z,54.80
2022-12-19T14:54:07.891Z,62.20
2022-12-19T14:54:34.134Z,54.08
2022-12-19T14:58:54.883Z,74.25
2022-12-19T15:01:07.600Z,58.75
2022-12-19T15:03:27.979Z,65.78
2022-12-19T15:07:05.898Z,60.80
2022-12-19T15:10:58.739Z,65.07
2022-12-19T15:14:48.709Z,68.00
2022-12-19T15:16:05.198Z,70.40
2022-12-19T15:18:44.148Z,81.15
2022-12-19T15:21:16.047Z,58.85
2022-12-19T15:23:48.309Z,63.58
2022-12-19T15:26:22.177Z,60.35
2022-12-19T15:28:54.792Z,72.45
2022-12-19T15:31:39.633Z,70.05
2022-12-19T15:34:51.140Z,59.15
2022-12-19T15:37:19.170Z,62.35
2022-12-19T15:39:48.264Z,63.65
2022-12-19T15:42:22.869Z,75.60
2022-12-19T15:44:54.776Z,82.90
2022-12-19T15:47:39.133Z,67.72
2022-12-19T15:50:19.454Z,94.70
2022-12-19T15:52:48.621Z,59.10
2022-12-19T15:55:27.179Z,60.70
2022-12-19T15:58:08.095Z,62.28
2022-12-19T16:00:41.059Z,51.30
2022-12-19T16:03:24.553Z,51.38
2022-12-19T16:05:55.091Z,57.92
2022-12-19T16:08:27.131Z,79.85
2022-12-19T16:11:01.714Z,66.47
2022-12-19T16:13:36.384Z,81.82
2022-12-19T16:16:15.095Z,72.60
2022-12-19T16:18:46.332Z,67.93
2022-12-19T16:21:35.537Z,65.72
2022-12-19T16:24:04.796Z,79.15
2022-12-19T16:26:41.238Z,65.90
2022-12-19T16:29:38.114Z,61.85
2022-12-19T16:32:14.735Z,61.20
2022-12-19T16:34:43.881Z,58.03
2022-12-19T16:37:13.081Z,64.28
2022-12-19T16:39:42.395Z,60.25
2022-12-19T16:42:19.242Z,53.85
2022-12-19T16:44:49.802Z,65.78
2022-12-19T16:47:20.684Z,58.30
2022-12-19T16:49:50.191Z,88.88
2022-12-19T16:52:19.325Z,62.90
2022-12-19T16:54:48.463Z,59.35
2022-12-19T16:57:24.356Z,59.58
2022-12-19T16:59:53.529Z,54.05
2022-12-19T17:02:42.036Z,55.72
2022-12-19T17:08:01.699Z,58.72
2022-12-19T17:10:34.477Z,93.43
2022-12-19T17:13:05.306Z,75.97
2022-12-19T17:15:39.732Z,67.93
2022-12-19T17:18:37.177Z,78.68
2022-12-19T17:21:06.739Z,97.03
2022-12-19T17:23:35.884Z,63.50
2022-12-19T17:26:05.076Z,59.83
2022-12-19T17:28:34.166Z,56.28
2022-12-19T17:31:12.482Z,50.22
2022-12-19T17:33:42.958Z,64.20
2022-12-19T17:36:21.224Z,69.20
2022-12-19T17:38:53.741Z,72.25
2022-12-19T17:41:22.942Z,68.28
2022-12-19T17:43:52.145Z,60.75
2022-12-19T17:46:24.650Z,81.53
2022-12-19T17:48:55.370Z,56.33
2022-12-19T17:51:25.636Z,45.72
2022-12-19T17:53:54.783Z,45.92
2022-12-19T17:56:24.017Z,47.97
2022-12-19T17:58:53.132Z,55.50
2022-12-19T18:01:26.935Z,62.05
2022-12-19T18:03:57.192Z,58.13
2022-12-19T18:06:26.498Z,57.33
2022-12-19T18:08:56.592Z,54.10
2022-12-19T18:11:28.146Z,59.08
2022-12-19T18:13:57.385Z,65.82
2022-12-19T18:16:31.902Z,64.68
2022-12-19T18:19:01.066Z,63.30
2022-12-19T18:21:30.136Z,74.85
2022-12-19T18:23:59.321Z,67.10
2022-12-19T18:26:28.419Z,53.05
2022-12-19T18:28:57.529Z,67.97
2022-12-19T18:31:28.455Z,61.05
2022-12-19T18:34:06.967Z,62.90
2022-12-19T18:36:43.912Z,63.70
2022-12-19T18:39:25.946Z,66.82
2022-12-19T18:41:56.169Z,64.07
2022-12-19T18:44:25.334Z,65.47
2022-12-19T18:46:55.253Z,61.83
2022-12-19T18:49:24.579Z,60.63
2022-12-19T18:51:53.743Z,71.72
2022-12-19T18:54:24.249Z,92.45
2022-12-19T18:56:53.528Z,111.00
2022-12-19T18:59:22.783Z,106.97
2022-12-19T19:01:52.126Z,113.60
2022-12-19T19:04:21.465Z,102.30
2022-12-19T19:06:52.773Z,99.80
2022-12-19T19:09:23.608Z,135.80
2022-12-19T19:11:53.008Z,167.82
2022-12-19T19:14:22.196Z,212.20
2022-12-19T19:16:53.372Z,235.55
2022-12-19T19:19:22.632Z,228.68
2022-12-19T19:21:51.791Z,211.52
2022-12-19T19:24:24.224Z,236.00
2022-12-19T19:26:53.420Z,237.50
2022-12-19T19:29:22.595Z,214.65
2022-12-19T19:31:54.105Z,178.90
2022-12-19T19:34:28.773Z,168.82
2022-12-19T19:37:05.269Z,139.32
2022-12-19T19:39:36.289Z,155.18
2022-12-19T19:42:06.040Z,198.18
2022-12-19T19:44:35.274Z,197.43
2022-12-19T19:47:04.570Z,189.55
2022-12-19T19:49:34.424Z,164.52
2022-12-19T19:52:03.687Z,171.00
2022-12-19T19:54:33.465Z,165.55
2022-12-19T19:57:02.829Z,172.13
2022-12-19T19:59:33.244Z,168.23
2022-12-19T20:02:02.841Z,155.55
2022-12-19T20:04:32.730Z,161.80
2022-12-19T20:07:02.036Z,152.38
2022-12-19T20:09:31.747Z,154.77
2022-12-19T20:12:01.373Z,129.73
2022-12-19T20:14:30.615Z,122.10
2022-12-19T20:16:59.877Z,118.80
2022-12-19T20:19:29.231Z,102.68
2022-12-19T20:21:59.514Z,104.10
2022-12-19T20:24:29.174Z,112.75
2022-12-19T20:26:59.904Z,132.95
2022-12-19T20:29:29.564Z,122.75
2022-12-19T20:31:58.939Z,105.68
2022-12-19T20:34:28.176Z,104.20
2022-12-19T20:36:57.386Z,111.93
2022-12-19T20:39:26.713Z,121.40
2022-12-19T20:41:56.016Z,132.68
2022-12-19T20:44:25.257Z,103.47
2022-12-19T20:46:54.965Z,97.97
2022-12-19T20:49:26.377Z,104.10
2022-12-19T20:51:55.874Z,95.18
2022-12-19T20:54:25.126Z,90.40
2022-12-19T20:56:54.413Z,91.28
2022-12-19T20:59:23.774Z,87.43
2022-12-19T21:01:53.087Z,90.53
2022-12-19T21:04:22.527Z,98.57
2022-12-19T21:06:51.865Z,99.75
2022-12-19T21:09:21.045Z,94.03
2022-12-19T21:11:50.391Z,109.50
2022-12-19T21:14:19.608Z,100.35
2022-12-19T21:16:48.813Z,93.07
2022-12-19T21:19:18.080Z,80.57
2022-12-19T21:21:47.342Z,84.78
2022-12-19T21:24:16.512Z,82.30
2022-12-19T21:26:46.188Z,75.25
2022-12-19T21:29:15.547Z,73.35
2022-12-19T21:31:45.744Z,74.18
2022-12-19T21:34:15.441Z,73.68
2022-12-19T21:36:44.724Z,77.50
2022-12-19T21:39:14.116Z,82.05
2022-12-19T21:41:43.280Z,70.18
2022-12-19T21:44:13.022Z,80.43
2022-12-19T21:46:42.234Z,66.30
2022-12-19T21:49:12.003Z,76.60
2022-12-19T21:51:41.289Z,72.40
2022-12-19T21:54:11.674Z,74.15
2022-12-19T21:56:44.201Z,84.55
2022-12-19T21:59:17.458Z,81.65
2022-12-19T22:01:47.554Z,77.95
2022-12-19T22:04:21.802Z,76.47
2022-12-19T22:06:53.044Z,73.25
2022-12-19T22:09:25.924Z,79.75
2022-12-19T22:11:55.148Z,72.65
2022-12-19T22:14:24.556Z,80.45
2022-12-19T22:16:54.781Z,83.72
2022-12-19T22:19:23.998Z,94.07
2022-12-19T22:21:53.195Z,87.60
2022-12-19T22:24:23.319Z,81.57
2022-12-19T22:26:52.939Z,89.57
2022-12-19T22:29:22.233Z,89.35
2022-12-19T22:31:51.589Z,81.85
2022-12-19T22:34:23.228Z,93.95
2022-12-19T22:36:52.502Z,94.45
2022-12-19T22:39:23.441Z,93.45
2022-12-19T22:41:53.013Z,95.80
2022-12-19T22:44:25.367Z,93.47
2022-12-19T22:46:54.964Z,99.22
2022-12-19T22:49:24.112Z,108.43
2022-12-19T22:51:53.322Z,115.55
2022-12-19T22:54:22.487Z,119.75
2022-12-19T22:56:53.049Z,134.82
2022-12-19T22:59:22.460Z,123.47
2022-12-19T23:01:51.836Z,114.38
2022-12-19T23:04:21.253Z,106.78
2022-12-19T23:06:50.560Z,118.97
2022-12-19T23:09:20.663Z,118.57
2022-12-19T23:11:51.236Z,99.03
2022-12-19T23:14:22.517Z,98.45
2022-12-19T23:16:52.078Z,109.40
2022-12-19T23:19:21.494Z,104.50
2022-12-19T23:21:50.576Z,102.47
2022-12-19T23:24:19.852Z,112.88
2022-12-19T23:26:48.924Z,108.13
2022-12-19T23:29:18.192Z,106.40
2022-12-19T23:31:48.850Z,112.03
2022-12-19T23:34:19.047Z,92.70
2022-12-19T23:39:37.451Z,112.97
2022-12-19T23:42:06.846Z,112.30
2022-12-19T23:44:36.208Z,115.55
2022-12-19T23:47:05.328Z,104.40
2022-12-19T23:49:35.453Z,111.47
2022-12-19T23:52:05.453Z,168.02
2022-12-19T23:54:34.693Z,172.60
2022-12-19T23:57:03.831Z,174.88
2022-12-19T23:59:33.011Z,165.68
